Time;durP1;ratioP1;P1;durP2;ratioP2;P2;SDS_P1;SDS_P2;PMS_P1;PMS_P2;Temp;Humidity;BMP_temperature;BMP_pressure;BME280_temperature;BME280_humidity;BME280_pressure;Samples;Min_cycle;Max_cycle;Signal;HPM_P1;HPM_P2
2024/02/10 00:01:02;;;;;;;6.00;3.58;;;15.20;83.00;;;;;;4079119;28;20057;-44
2024/02/10 00:03:44;;;;;;;4.00;3.60;;;15.20;83.10;;;;;;4067225;29;20194;-46
2024/02/10 00:06:26;;;;;;;6.30;3.47;;;15.20;83.10;;;;;;4089524;28;20062;-46
2024/02/10 00:09:08;;;;;;;6.10;3.90;;;15.20;83.30;;;;;;4074146;29;20074;-44
2024/02/10 00:11:48;;;;;;;4.28;3.45;;;15.10;83.30;;;;;;4073889;29;20062;-44
2024/02/10 00:14:34;;;;;;;5.95;4.13;;;15.20;83.40;;;;;;4073752;29;20063;-45
2024/02/10 00:17:15;;;;;;;5.25;3.78;;;15.10;83.40;;;;;;4073440;29;20794;-45
2024/02/10 00:19:57;;;;;;;7.05;4.13;;;15.10;83.40;;;;;;4072840;29;20175;-44
2024/02/10 00:22:39;;;;;;;6.80;4.13;;;15.10;83.50;;;;;;4073780;29;20416;-45
2024/02/10 00:25:23;;;;;;;7.15;3.58;;;15.10;83.60;;;;;;4061577;29;20110;-47
2024/02/10 00:28:06;;;;;;;4.75;4.32;;;15.10;83.90;;;;;;4072775;29;20071;-45
2024/02/10 00:30:48;;;;;;;5.22;4.72;;;15.10;83.90;;;;;;4083631;28;20113;-46
2024/02/10 00:33:29;;;;;;;8.82;4.28;;;15.10;83.80;;;;;;4088970;28;20058;-44
2024/02/10 00:36:10;;;;;;;5.13;4.18;;;15.10;83.90;;;;;;4089344;28;20050;-44
2024/02/10 00:38:53;;;;;;;6.90;4.22;;;15.10;84.00;;;;;;4088970;28;20062;-44
2024/02/10 00:41:34;;;;;;;6.88;4.30;;;15.10;84.10;;;;;;4073276;29;20047;-46
2024/02/10 00:44:17;;;;;;;4.97;3.90;;;15.10;84.10;;;;;;4083800;28;20062;-43
2024/02/10 00:46:58;;;;;;;6.32;4.20;;;15.10;84.10;;;;;;4076759;29;20061;-58
2024/02/10 00:49:40;;;;;;;6.70;3.80;;;15.10;84.10;;;;;;4073177;29;20802;-59
2024/02/10 00:52:20;;;;;;;5.63;4.38;;;15.10;84.30;;;;;;4069789;29;20062;-60
2024/02/10 00:55:03;;;;;;;6.32;3.97;;;15.00;84.30;;;;;;4070726;28;20067;-46
2024/02/10 00:57:46;;;;;;;6.70;4.07;;;15.00;84.30;;;;;;4086103;28;20058;-44
2024/02/10 01:00:30;;;;;;;6.78;4.38;;;15.00;84.30;;;;;;4086764;28;20082;-58
2024/02/10 01:03:13;;;;;;;5.32;4.30;;;15.00;85.30;;;;;;4076611;28;20058;-57
2024/02/10 01:05:55;;;;;;;12.05;5.10;;;15.00;84.50;;;;;;4086805;28;20100;-59
2024/02/10 01:08:36;;;;;;;6.68;4.38;;;15.00;84.50;;;;;;4075583;28;20408;-58
2024/02/10 01:11:20;;;;;;;9.27;4.88;;;15.00;84.60;;;;;;4087867;28;20053;-57
2024/02/10 01:14:01;;;;;;;6.55;4.47;;;15.00;84.60;;;;;;4075140;28;20054;-57
2024/02/10 01:16:43;;;;;;;7.10;4.43;;;15.00;84.70;;;;;;4076510;28;20097;-58
2024/02/10 01:19:25;;;;;;;6.57;4.80;;;15.00;84.80;;;;;;4088181;28;20062;-55
2024/02/10 01:22:06;;;;;;;5.78;4.40;;;15.00;84.80;;;;;;4087124;28;20408;-59
2024/02/10 01:24:48;;;;;;;7.10;4.38;;;15.00;84.80;;;;;;4087113;28;20175;-59
2024/02/10 01:27:30;;;;;;;7.50;4.50;;;15.00;84.90;;;;;;4075945;28;20525;-58
2024/02/10 01:30:13;;;;;;;6.22;4.25;;;15.00;85.80;;;;;;4075993;28;20376;-58
2024/02/10 01:32:57;;;;;;;9.13;4.32;;;14.90;84.90;;;;;;4087363;28;20579;-60
2024/02/10 01:35:39;;;;;;;5.30;4.30;;;14.90;85.00;;;;;;4087009;28;20058;-58
2024/02/10 01:38:21;;;;;;;7.30;4.43;;;14.90;85.00;;;;;;4087826;28;20091;-59
2024/02/10 01:41:02;;;;;;;7.75;4.60;;;15.00;85.10;;;;;;4073021;29;20658;-57
2024/02/10 01:43:45;;;;;;;6.75;4.75;;;14.90;85.10;;;;;;4077969;28;20051;-56
2024/02/10 01:46:27;;;;;;;7.63;4.75;;;14.90;85.10;;;;;;4087858;28;20063;-57
2024/02/10 01:49:08;;;;;;;7.45;4.80;;;14.90;85.20;;;;;;4088565;28;20054;-59
2024/02/10 01:51:49;;;;;;;;;;;14.90;85.10;;;;;;4088381;28;20066;-58
2024/02/10 01:54:30;;;;;;;9.77;4.55;;;14.90;85.20;;;;;;4076529;28;20897;-57
2024/02/10 01:57:13;;;;;;;7.72;5.05;;;14.90;85.80;;;;;;4088796;28;20062;-56
2024/02/10 01:59:59;;;;;;;10.45;5.07;;;15.00;85.70;;;;;;4076131;28;20062;-57
2024/02/10 02:02:41;;;;;;;6.43;5.80;;;15.00;85.60;;;;;;4088350;28;20102;-57
2024/02/10 02:05:22;;;;;;;7.43;5.47;;;15.00;85.50;;;;;;4072422;29;20125;-57
2024/02/10 02:08:04;;;;;;;9.38;5.78;;;15.10;85.50;;;;;;4070144;28;20069;-58
2024/02/10 02:10:45;;;;;;;7.18;5.05;;;15.10;85.30;;;;;;4072935;29;20058;-60
2024/02/10 02:13:27;;;;;;;7.72;5.28;;;15.10;85.10;;;;;;4071922;29;20134;-61
2024/02/10 02:16:11;;;;;;;8.63;5.45;;;15.10;85.00;;;;;;4054712;29;20059;-59
2024/02/10 02:18:55;;;;;;;8.52;5.40;;;15.00;85.00;;;;;;4079440;29;20058;-60
2024/02/10 02:21:39;;;;;;;5.72;4.72;;;15.00;85.00;;;;;;4087212;28;20058;-60
2024/02/10 02:24:22;;;;;;;8.10;5.53;;;15.00;85.70;;;;;;4087465;28;20106;-59
2024/02/10 02:27:03;;;;;;;6.63;4.85;;;15.10;86.10;;;;;;4087678;28;20191;-59
2024/02/10 02:29:44;;;;;;;7.25;4.72;;;15.20;85.90;;;;;;4087706;28;20133;-61
2024/02/10 02:32:28;;;;;;;10.30;6.25;;;15.30;85.50;;;;;;4072128;29;20054;-59
2024/02/10 02:35:10;;;;;;;6.30;5.50;;;15.40;85.30;;;;;;4062718;28;20860;-57
2024/02/10 02:37:52;;;;;;;8.65;5.22;;;15.40;85.00;;;;;;4090490;28;20058;-56
2024/02/10 02:40:35;;;;;;;12.40;6.40;;;15.40;84.80;;;;;;4091069;28;20050;-56
2024/02/10 02:43:15;;;;;;;7.85;5.35;;;15.40;84.80;;;;;;4090630;28;20507;-58
2024/02/10 02:45:57;;;;;;;6.82;5.05;;;15.50;85.00;;;;;;4091241;28;20138;-57
2024/02/10 02:48:38;;;;;;;5.75;4.85;;;15.50;84.70;;;;;;4079389;28;20151;-56
2024/02/10 02:51:20;;;;;;;7.85;5.60;;;15.50;84.50;;;;;;4089794;28;20570;-56
2024/02/10 02:54:00;;;;;;;6.65;5.65;;;15.60;84.30;;;;;;4090527;28;20081;-56
2024/02/10 02:56:45;;;;;;;6.85;4.97;;;15.60;84.20;;;;;;4075598;29;20121;-56
2024/02/10 02:59:26;;;;;;;6.13;4.78;;;15.60;84.20;;;;;;4090743;28;20065;-55
2024/02/10 03:02:07;;;;;;;7.88;5.75;;;15.60;84.10;;;;;;4090995;28;20444;-55
2024/02/10 03:04:48;;;;;;;7.75;5.35;;;15.60;84.20;;;;;;4091116;28;20053;-58
2024/02/10 03:07:30;;;;;;;5.57;5.07;;;15.70;84.10;;;;;;4090514;28;20050;-58
2024/02/10 03:10:11;;;;;;;;;;;15.70;83.80;;;;;;4090436;28;20385;-56
2024/02/10 03:12:54;;;;;;;10.48;4.80;;;15.70;83.70;;;;;;4090442;28;20385;-57
2024/02/10 03:15:37;;;;;;;12.32;5.95;;;15.70;83.70;;;;;;4089621;28;20045;-57
2024/02/10 03:18:19;;;;;;;9.75;5.85;;;15.70;83.60;;;;;;4089627;28;20114;-59
2024/02/10 03:21:00;;;;;;;5.78;5.28;;;15.70;83.70;;;;;;4074244;29;20062;-59
2024/02/10 03:23:41;;;;;;;6.50;5.00;;;15.70;83.60;;;;;;4074360;29;20062;-59
2024/02/10 03:26:22;;;;;;;9.35;5.15;;;15.80;84.20;;;;;;4074063;29;20453;-57
2024/02/10 03:29:05;;;;;;;8.65;5.40;;;15.80;83.50;;;;;;4073980;29;20419;-58
2024/02/10 03:31:47;;;;;;;10.38;5.32;;;15.80;83.40;;;;;;4094909;28;20285;-58
2024/02/10 03:34:28;;;;;;;9.93;5.97;;;15.80;83.50;;;;;;4090066;28;20058;-58
2024/02/10 03:37:10;;;;;;;6.00;5.38;;;15.80;83.70;;;;;;4090128;28;20054;-57
2024/02/10 03:39:51;;;;;;;10.30;6.20;;;15.80;83.30;;;;;;4089589;28;20427;-58
2024/02/10 03:42:33;;;;;;;8.20;6.30;;;15.80;83.20;;;;;;4089441;28;20073;-58
2024/02/10 03:45:15;;;;;;;11.65;6.03;;;15.90;83.30;;;;;;4073917;28;20063;-59
2024/02/10 03:48:03;;;;;;;11.40;5.57;;;15.90;83.10;;;;;;4074332;29;20187;-60
2024/02/10 03:50:44;;;;;;;7.97;5.50;;;15.90;82.70;;;;;;4088411;28;20062;-59
2024/02/10 03:53:26;;;;;;;6.65;4.97;;;16.00;82.70;;;;;;4089339;28;20121;-60
2024/02/10 03:56:09;;;;;;;9.18;5.68;;;16.00;82.70;;;;;;4089192;28;20110;-58
2024/02/10 03:58:50;;;;;;;9.05;5.85;;;16.00;82.70;;;;;;4089760;28;20218;-57
2024/02/10 04:01:33;;;;;;;7.95;5.60;;;16.00;82.60;;;;;;4089484;28;20058;-57
2024/02/10 04:04:14;;;;;;;7.85;5.78;;;16.00;82.50;;;;;;4088791;28;20090;-57
2024/02/10 04:06:55;;;;;;;9.75;6.30;;;16.00;82.40;;;;;;4089568;28;20170;-57
2024/02/10 04:09:36;;;;;;;10.13;6.38;;;16.00;83.20;;;;;;4076686;28;20074;-56
2024/02/10 04:12:17;;;;;;;8.68;5.97;;;16.00;82.40;;;;;;4088921;28;20524;-58
2024/02/10 04:14:58;;;;;;;11.55;5.93;;;15.90;82.40;;;;;;4089569;28;20077;-57
2024/02/10 04:17:42;;;;;;;6.68;5.72;;;15.90;82.60;;;;;;4079462;28;20062;-59
2024/02/10 04:20:25;;;;;;;8.25;5.40;;;15.90;82.90;;;;;;4073010;29;20055;-45
2024/02/10 04:23:10;;;;;;;12.82;6.40;;;15.80;83.10;;;;;;4072229;29;20054;-46
2024/02/10 04:25:51;;;;;;;7.40;5.47;;;15.90;83.40;;;;;;4074177;29;20058;-57
2024/02/10 04:28:33;;;;;;;10.02;5.82;;;15.90;83.10;;;;;;4077522;29;20054;-58
2024/02/10 04:31:14;;;;;;;8.38;6.32;;;15.90;83.70;;;;;;4088526;28;20121;-58
2024/02/10 04:33:57;;;;;;;9.35;5.82;;;16.00;82.80;;;;;;4081027;28;20062;-58
2024/02/10 04:36:38;;;;;;;10.77;6.18;;;16.00;82.70;;;;;;4088965;28;20054;-58
2024/02/10 04:39:19;;;;;;;;;;;16.10;82.50;;;;;;4089654;28;20416;-57
2024/02/10 04:42:00;;;;;;;13.45;6.35;;;16.10;82.50;;;;;;4088980;28;20283;-56
2024/02/10 04:44:41;;;;;;;11.98;5.93;;;16.10;82.50;;;;;;4072994;29;20134;-57
2024/02/10 04:47:22;;;;;;;9.90;6.30;;;16.00;82.50;;;;;;4076076;29;20410;-57
2024/02/10 04:50:05;;;;;;;9.48;6.38;;;16.00;82.50;;;;;;4089052;28;20069;-59
2024/02/10 04:52:46;;;;;;;10.90;6.78;;;16.10;82.50;;;;;;4072507;29;20112;-56
2024/02/10 04:55:28;;;;;;;8.95;5.78;;;16.10;82.50;;;;;;4083553;28;20062;-54
2024/02/10 04:58:12;;;;;;;7.20;5.80;;;16.00;82.40;;;;;;4076789;28;20734;-55
2024/02/10 05:00:54;;;;;;;10.05;6.30;;;16.00;82.30;;;;;;4076917;28;20046;-59
2024/02/10 05:03:35;;;;;;;8.70;6.28;;;16.00;82.40;;;;;;4076715;29;20062;-57
2024/02/10 05:06:17;;;;;;;;;;;16.00;82.60;;;;;;4089047;28;20078;-59
2024/02/10 05:08:59;;;;;;;8.60;6.22;;;16.00;82.70;;;;;;4088380;28;20291;-58
2024/02/10 05:11:39;;;;;;;7.00;5.75;;;16.00;83.50;;;;;;4072927;29;20147;-58
2024/02/10 05:14:22;;;;;;;7.47;5.85;;;16.10;82.50;;;;;;4072687;28;20389;-58
2024/02/10 05:17:04;;;;;;;8.88;5.97;;;16.10;82.50;;;;;;4084993;28;20150;-57
2024/02/10 05:19:45;;;;;;;8.10;6.10;;;16.10;82.40;;;;;;4088833;28;20128;-56
2024/02/10 05:22:27;;;;;;;10.70;5.85;;;16.10;82.30;;;;;;4073068;29;20054;-57
2024/02/10 05:25:10;;;;;;;7.93;5.55;;;16.10;82.20;;;;;;4072905;29;20054;-58
2024/02/10 05:27:52;;;;;;;9.60;6.43;;;16.10;82.10;;;;;;4073547;28;20413;-57
2024/02/10 05:30:33;;;;;;;8.10;6.03;;;16.10;82.10;;;;;;4088580;28;20183;-58
2024/02/10 05:33:15;;;;;;;9.32;6.07;;;16.10;82.20;;;;;;4088303;28;20089;-58
2024/02/10 05:35:56;;;;;;;7.75;5.65;;;16.10;82.30;;;;;;4088070;28;20380;-58
2024/02/10 05:38:39;;;;;;;9.85;5.97;;;16.00;82.50;;;;;;4088314;28;20117;-59
2024/02/10 05:41:20;;;;;;;8.68;5.93;;;16.00;82.80;;;;;;4087970;28;20057;-61
2024/02/10 05:44:01;;;;;;;8.63;5.80;;;16.00;82.70;;;;;;4076863;28;20071;-60
2024/02/10 05:46:44;;;;;;;8.60;6.18;;;16.10;83.50;;;;;;4088281;28;20195;-59
2024/02/10 05:49:25;;;;;;;7.95;5.60;;;16.10;82.50;;;;;;4088297;28;20472;-61
2024/02/10 05:52:09;;;;;;;10.45;6.70;;;16.10;82.50;;;;;;4088199;28;20081;-59
2024/02/10 05:54:54;;;;;;;11.10;5.50;;;16.10;82.40;;;;;;4088296;28;20102;-59
2024/02/10 05:57:36;;;;;;;8.82;5.43;;;16.10;82.50;;;;;;4072813;29;20665;-60
2024/02/10 06:00:18;;;;;;;12.00;5.53;;;16.10;82.60;;;;;;4072646;29;20070;-58
2024/02/10 06:02:59;;;;;;;10.90;5.93;;;16.10;82.50;;;;;;4072819;29;20054;-57
2024/02/10 06:05:41;;;;;;;7.78;5.05;;;16.10;82.30;;;;;;4088079;28;20062;-56
2024/02/10 06:08:23;;;;;;;;;;;16.10;82.20;;;;;;4088298;28;20062;-57
2024/02/10 06:11:06;;;;;;;7.70;5.75;;;16.10;82.20;;;;;;4082894;28;19933;-57
2024/02/10 06:13:49;;;;;;;7.93;6.03;;;16.10;82.40;;;;;;4091174;28;20106;-57
2024/02/10 06:16:30;;;;;;;8.60;5.47;;;16.10;82.30;;;;;;4091336;28;20062;-55
2024/02/10 06:19:12;;;;;;;10.10;5.40;;;16.10;82.20;;;;;;4090668;28;20053;-57
2024/02/10 06:21:53;;;;;;;10.13;6.65;;;16.10;82.30;;;;;;4091386;28;20058;-56
2024/02/10 06:24:35;;;;;;;7.28;5.50;;;16.10;82.30;;;;;;4090287;28;20054;-57
2024/02/10 06:27:19;;;;;;;6.45;5.75;;;16.10;82.40;;;;;;4090719;28;20058;-56
2024/02/10 06:30:00;;;;;;;9.00;5.57;;;16.10;82.40;;;;;;4074916;29;20492;-57
2024/02/10 06:32:44;;;;;;;9.75;6.13;;;16.10;82.50;;;;;;4075033;29;20699;-57
2024/02/10 06:35:25;;;;;;;;;;;16.10;82.60;;;;;;4075285;28;20059;-57
2024/02/10 06:38:06;;;;;;;8.85;5.88;;;16.10;82.50;;;;;;4074512;29;20058;-58
2024/02/10 06:40:50;;;;;;;8.32;6.18;;;16.10;82.60;;;;;;4086887;28;20073;-55
2024/02/10 06:43:34;;;;;;;9.60;6.10;;;16.20;82.40;;;;;;4091465;28;20058;-56
2024/02/10 06:46:16;;;;;;;7.70;5.60;;;16.20;82.30;;;;;;4090974;28;20085;-57
2024/02/10 06:48:59;;;;;;;6.95;5.43;;;16.20;82.10;;;;;;4091527;28;20716;-57
2024/02/10 06:51:41;;;;;;;9.07;5.57;;;16.20;82.00;;;;;;4091066;28;20058;-56
2024/02/10 06:54:22;;;;;;;;;;;16.20;82.00;;;;;;4075477;29;20058;-45
2024/02/10 06:57:03;;;;;;;8.20;5.97;;;16.20;82.00;;;;;;4083199;28;19954;-44
2024/02/10 06:59:45;;;;;;;8.27;6.45;;;16.20;82.10;;;;;;4089688;28;20522;-42
2024/02/10 07:02:27;;;;;;;9.55;7.13;;;16.20;82.20;;;;;;4090834;28;20182;-43
2024/02/10 07:05:11;;;;;;;11.50;6.45;;;16.20;82.30;;;;;;4078570;28;20058;-44
2024/02/10 07:07:53;;;;;;;11.93;6.75;;;16.20;82.30;;;;;;4089874;28;20098;-45
2024/02/10 07:10:37;;;;;;;10.80;6.50;;;16.30;82.20;;;;;;4071537;28;20098;-45
2024/02/10 07:13:18;;;;;;;7.63;6.30;;;16.30;82.30;;;;;;4086053;28;20432;-43
2024/02/10 07:16:05;;;;;;;8.77;6.68;;;16.30;82.10;;;;;;4090838;28;20095;-43
2024/02/10 07:18:47;;;;;;;9.05;5.90;;;16.40;81.90;;;;;;4074428;29;20082;-43
2024/02/10 07:21:29;;;;;;;9.60;6.60;;;16.40;81.80;;;;;;4061673;29;20082;-44
2024/02/10 07:24:09;;;;;;;11.27;6.70;;;16.40;81.70;;;;;;4078701;28;20098;-44
2024/02/10 07:26:50;;;;;;;8.68;6.78;;;16.40;81.70;;;;;;4089590;28;20198;-44
2024/02/10 07:29:35;;;;;;;10.65;6.50;;;16.40;81.60;;;;;;4090025;28;20512;-44
2024/02/10 07:32:17;;;;;;;7.63;5.72;;;16.40;81.50;;;;;;4090109;28;20146;-44
2024/02/10 07:35:00;;;;;;;8.25;6.30;;;16.50;81.30;;;;;;4090519;28;20063;-43
2024/02/10 07:37:41;;;;;;;8.57;6.25;;;16.40;81.20;;;;;;4089721;28;20066;-47
2024/02/10 07:40:22;;;;;;;8.27;6.45;;;16.40;81.20;;;;;;4090395;28;20062;-60
2024/02/10 07:43:05;;;;;;;6.75;6.00;;;16.40;81.40;;;;;;4073901;29;20068;-57
2024/02/10 07:45:48;;;;;;;8.07;5.97;;;16.30;81.50;;;;;;4081715;28;20051;-62
2024/02/10 07:48:31;;;;;;;11.68;7.68;;;16.30;81.70;;;;;;4090200;29;20066;-56
2024/02/10 07:51:12;;;;;;;9.20;7.07;;;16.30;81.90;;;;;;4077541;28;20058;-58
2024/02/10 07:53:56;;;;;;;10.60;7.07;;;16.40;81.80;;;;;;4082699;28;20158;-59
2024/02/10 07:56:38;;;;;;;9.20;7.28;;;16.40;81.60;;;;;;4089067;28;20062;-43
2024/02/10 07:59:23;;;;;;;8.20;6.50;;;16.50;81.50;;;;;;4086978;28;20102;-44
2024/02/10 08:02:05;;;;;;;7.93;7.10;;;16.50;81.40;;;;;;4080116;28;20062;-42
2024/02/10 08:04:49;;;;;;;11.00;7.15;;;16.50;81.20;;;;;;4089561;28;20412;-43
2024/02/10 08:07:30;;;;;;;8.73;6.97;;;16.50;81.10;;;;;;4073569;29;20186;-43
2024/02/10 08:10:12;;;;;;;10.55;7.18;;;16.50;81.30;;;;;;4077745;28;20057;-44
2024/02/10 08:12:54;;;;;;;10.40;7.57;;;16.40;81.30;;;;;;4090211;28;20078;-43
2024/02/10 08:15:35;;;;;;;9.57;6.53;;;16.50;81.20;;;;;;4085223;29;20124;-43
2024/02/10 08:18:18;;;;;;;9.90;6.72;;;16.50;81.10;;;;;;4086119;28;20439;-43
2024/02/10 08:21:00;;;;;;;8.82;6.47;;;16.40;81.10;;;;;;4089130;28;20105;-42
2024/02/10 08:23:44;;;;;;;9.38;7.22;;;16.40;81.20;;;;;;4078863;28;20058;-43
2024/02/10 08:26:26;;;;;;;10.18;7.82;;;16.40;81.20;;;;;;4084237;28;20058;-43
2024/02/10 08:29:07;;;;;;;13.20;8.55;;;16.40;81.20;;;;;;4070877;29;20047;-44
2024/02/10 08:31:50;;;;;;;9.80;7.10;;;16.40;81.10;;;;;;4080601;28;20054;-44
2024/02/10 08:34:35;;;;;;;11.82;7.53;;;16.40;81.20;;;;;;4087821;28;20175;-43
2024/02/10 08:37:18;;;;;;;11.45;7.10;;;16.40;81.30;;;;;;4058109;29;20138;-56
2024/02/10 08:40:01;;;;;;;10.57;7.93;;;16.40;81.60;;;;;;4052496;29;20079;-55
2024/02/10 08:42:42;;;;;;;8.52;7.47;;;16.40;81.90;;;;;;4059866;29;20091;-53
2024/02/10 08:45:25;;;;;;;9.80;7.30;;;16.30;82.00;;;;;;4060330;29;20126;-52
2024/02/10 08:48:10;;;;;;;8.48;6.82;;;16.30;82.30;;;;;;4053642;29;20607;-55
2024/02/10 08:50:53;;;;;;;9.60;7.65;;;16.30;82.50;;;;;;4059574;29;20188;-57
2024/02/10 08:53:36;;;;;;;12.70;7.85;;;16.40;82.40;;;;;;4058773;29;20532;-54
2024/02/10 08:56:20;;;;;;;10.98;7.55;;;16.40;82.40;;;;;;4058885;29;20174;-56
2024/02/10 08:59:02;;;;;;;12.85;7.55;;;16.40;82.60;;;;;;4054034;29;20058;-54
2024/02/10 09:01:43;;;;;;;12.95;7.45;;;16.50;82.80;;;;;;4066317;29;20577;-55
2024/02/10 09:04:24;;;;;;;10.27;7.60;;;16.60;82.60;;;;;;4054757;29;20051;-53
2024/02/10 09:07:06;;;;;;;12.02;6.85;;;16.60;82.30;;;;;;4056284;29;20127;-53
2024/02/10 09:09:49;;;;;;;11.82;8.18;;;16.70;82.00;;;;;;4077017;29;20059;-54
2024/02/10 09:12:30;;;;;;;7.53;6.55;;;16.80;81.80;;;;;;4092544;28;20075;-56
2024/02/10 09:15:11;;;;;;;8.68;7.53;;;16.80;81.50;;;;;;4091973;28;20058;-55
2024/02/10 09:17:53;;;;;;;;;;;16.80;81.30;;;;;;4094835;28;20519;-44
2024/02/10 09:20:34;;;;;;;11.20;7.33;;;16.80;81.40;;;;;;4094408;28;19980;-45
2024/02/10 09:23:15;;;;;;;8.60;7.32;;;16.80;81.70;;;;;;4081129;28;20543;-46
2024/02/10 09:25:58;;;;;;;8.35;7.53;;;16.80;81.70;;;;;;4091407;28;20062;-45
2024/02/10 09:28:39;;;;;;;7.90;7.05;;;16.90;81.40;;;;;;4092291;28;20055;-46
2024/02/10 09:31:23;;;;;;;8.98;7.25;;;16.90;81.20;;;;;;4087589;28;20249;-46
2024/02/10 09:34:07;;;;;;;13.80;7.57;;;16.90;81.10;;;;;;4103309;28;20065;-45
2024/02/10 09:36:48;;;;;;;11.68;7.65;;;17.00;81.20;;;;;;4092853;28;20128;-45
2024/02/10 09:39:29;;;;;;;9.65;7.97;;;17.10;80.90;;;;;;4101101;28;20057;-43
2024/02/10 09:42:20;;;;;;;7.97;6.45;;;17.50;79.90;;;;;;4079154;28;20054;-45
2024/02/10 09:45:01;;;;;;;8.90;6.38;;;17.90;78.50;;;;;;4091269;28;20062;-45
2024/02/10 09:47:43;;;;;;;7.22;6.53;;;18.40;77.00;;;;;;4077383;29;20055;-44
2024/02/10 09:50:25;;;;;;;7.13;6.18;;;18.80;75.30;;;;;;4089215;28;20094;-55
2024/02/10 09:53:10;;;;;;;8.23;6.65;;;19.20;73.70;;;;;;4093416;28;20074;-47
2024/02/10 09:55:56;;;;;;;7.40;6.68;;;19.60;72.10;;;;;;4089519;28;20562;-49
2024/02/10 09:58:41;;;;;;;8.02;6.40;;;20.00;70.50;;;;;;4089536;28;20125;-57
2024/02/10 10:01:22;;;;;;;9.25;5.55;;;20.40;69.60;;;;;;4080347;28;20191;-60
2024/02/10 10:04:03;;;;;;;9.23;6.15;;;20.60;68.70;;;;;;4088120;28;20078;-60
2024/02/10 10:06:44;;;;;;;10.02;6.35;;;20.80;67.80;;;;;;4075758;28;20455;-60
2024/02/10 10:09:29;;;;;;;8.60;6.75;;;20.90;67.20;;;;;;4086870;28;20055;-60
2024/02/10 10:12:10;;;;;;;6.40;5.80;;;20.90;66.70;;;;;;4087474;28;20066;-60
2024/02/10 10:14:54;;;;;;;8.20;5.65;;;20.90;66.60;;;;;;4071569;29;20117;-61
2024/02/10 10:17:36;;;;;;;6.00;5.47;;;20.80;66.70;;;;;;4060631;29;20055;-60
2024/02/10 10:20:20;;;;;;;5.80;5.30;;;20.70;66.90;;;;;;4049022;29;20107;-62
2024/02/10 10:23:02;;;;;;;6.72;5.72;;;20.60;66.90;;;;;;4072334;29;20117;-61
2024/02/10 10:25:45;;;;;;;6.03;5.53;;;20.50;68.20;;;;;;4086814;28;20062;-58
2024/02/10 10:28:27;;;;;;;5.20;4.70;;;20.30;67.60;;;;;;4088102;28;20062;-56
2024/02/10 10:31:10;;;;;;;6.18;5.57;;;20.20;68.00;;;;;;4070662;28;20055;-61
2024/02/10 10:33:54;;;;;;;5.82;5.22;;;20.20;68.20;;;;;;4071395;29;20050;-59
2024/02/10 10:36:36;;;;;;;6.38;4.90;;;20.30;68.10;;;;;;4085241;28;20132;-59
2024/02/10 10:39:19;;;;;;;6.10;5.30;;;20.40;67.80;;;;;;4088134;28;20202;-59
2024/02/10 10:42:00;;;;;;;5.97;4.80;;;20.50;67.40;;;;;;4087962;28;20186;-59
2024/02/10 10:44:43;;;;;;;7.00;4.70;;;20.60;66.80;;;;;;4075685;28;20640;-60
2024/02/10 10:47:26;;;;;;;5.53;5.03;;;20.80;66.30;;;;;;4087191;28;20054;-60
2024/02/10 10:50:08;;;;;;;4.80;4.30;;;20.90;65.80;;;;;;4084564;28;20053;-61
2024/02/10 10:52:52;;;;;;;5.43;4.50;;;21.00;65.40;;;;;;4085608;28;20070;-60
2024/02/10 10:55:36;;;;;;;8.82;7.25;;;21.10;65.00;;;;;;4087168;28;20062;-60
2024/02/10 10:58:21;;;;;;;5.72;5.13;;;21.10;65.60;;;;;;4088644;28;20085;-60
2024/02/10 11:01:04;;;;;;;5.55;4.43;;;21.10;64.50;;;;;;4089569;28;20081;-61
2024/02/10 11:03:46;;;;;;;5.18;4.68;;;21.10;64.60;;;;;;4076774;29;20133;-59
2024/02/10 11:06:32;;;;;;;4.82;4.40;;;21.00;64.80;;;;;;4088393;28;20407;-61
2024/02/10 11:09:20;;;;;;;4.38;3.97;;;21.00;64.80;;;;;;4090189;28;20051;-61
2024/02/10 11:12:04;;;;;;;4.97;4.22;;;21.00;64.80;;;;;;4073878;29;20102;-59
2024/02/10 11:14:52;;;;;;;6.65;4.75;;;21.00;64.90;;;;;;4075690;28;20077;-61
2024/02/10 11:17:34;;;;;;;4.55;4.07;;;21.00;64.60;;;;;;4089286;28;20062;-61
2024/02/10 11:20:18;;;;;;;4.25;3.88;;;21.00;64.80;;;;;;4084676;28;20381;-42
2024/02/10 11:23:11;;;;;;;5.47;3.85;;;21.00;64.80;;;;;;4090423;28;20077;-46
2024/02/10 11:25:54;;;;;;;4.88;3.88;;;21.00;64.60;;;;;;4088420;28;20057;-44
2024/02/10 11:28:38;;;;;;;3.90;3.55;;;21.10;64.60;;;;;;4089861;28;20058;-43
2024/02/10 11:31:20;;;;;;;5.03;4.13;;;21.10;64.50;;;;;;4078403;28;20559;-45
2024/02/10 11:34:05;;;;;;;4.03;3.70;;;21.10;64.40;;;;;;4089771;28;20058;-44
2024/02/10 11:36:51;;;;;;;4.65;3.92;;;21.10;64.30;;;;;;4089245;28;20062;-44
2024/02/10 11:39:33;;;;;;;4.57;4.18;;;21.10;64.20;;;;;;4077838;28;20492;-45
2024/02/10 11:42:16;;;;;;;6.20;4.13;;;21.10;64.30;;;;;;4089742;28;20113;-43
2024/02/10 11:45:00;;;;;;;6.30;4.93;;;21.10;64.20;;;;;;4089643;28;20164;-47
2024/02/10 11:47:43;;;;;;;9.00;4.95;;;21.00;64.20;;;;;;4090160;28;20050;-43
2024/02/10 11:50:24;;;;;;;6.78;4.68;;;21.00;64.50;;;;;;4088648;28;20080;-45
2024/02/10 11:53:06;;;;;;;10.10;4.85;;;21.00;64.50;;;;;;4088716;28;20089;-45
2024/02/10 11:55:48;;;;;;;6.43;4.80;;;21.00;64.40;;;;;;4088868;28;20061;-43
2024/02/10 11:58:29;;;;;;;7.63;5.03;;;21.00;64.50;;;;;;4089086;28;20058;-45
2024/02/10 12:01:11;;;;;;;6.20;4.15;;;21.00;64.60;;;;;;4090014;28;20054;-61
2024/02/10 12:03:52;;;;;;;5.20;4.60;;;21.00;64.30;;;;;;4079662;28;20057;-62
2024/02/10 12:06:36;;;;;;;;;;;21.10;64.30;;;;;;4079098;29;20113;-61
2024/02/10 12:09:21;;;;;;;6.90;4.78;;;21.10;64.20;;;;;;4088604;28;20386;-61
2024/02/10 12:12:03;;;;;;;5.80;4.32;;;21.10;64.30;;;;;;4089293;28;20105;-62
2024/02/10 12:14:45;;;;;;;7.45;4.63;;;21.20;64.10;;;;;;4089138;28;20058;-60
2024/02/10 12:17:30;;;;;;;4.22;3.80;;;21.20;63.80;;;;;;4088875;28;20424;-61
2024/02/10 12:20:14;;;;;;;5.38;4.07;;;21.20;63.80;;;;;;4089603;28;20058;-61
2024/02/10 12:22:55;;;;;;;5.45;3.97;;;21.10;63.90;;;;;;4089395;28;20089;-59
2024/02/10 12:25:38;;;;;;;4.47;3.95;;;21.00;64.20;;;;;;4089099;28;20058;-61
2024/02/10 12:28:19;;;;;;;6.22;4.40;;;21.00;64.40;;;;;;4088473;28;20109;-44
2024/02/10 12:30:59;;;;;;;4.53;3.53;;;20.90;64.50;;;;;;4088535;28;20567;-45
2024/02/10 12:33:42;;;;;;;5.90;3.83;;;20.80;65.20;;;;;;4084232;28;20085;-43
2024/02/10 12:36:24;;;;;;;4.60;4.07;;;20.80;66.50;;;;;;4087345;28;20512;-45
2024/02/10 12:39:06;;;;;;;4.55;4.15;;;20.80;66.00;;;;;;4089245;28;20514;-44
2024/02/10 12:41:49;;;;;;;;;;;20.90;66.30;;;;;;4085488;28;20058;-59
2024/02/10 12:44:31;;;;;;;5.25;3.75;;;20.90;66.50;;;;;;4087118;28;19929;-58
2024/02/10 12:47:14;;;;;;;5.43;4.10;;;21.00;66.40;;;;;;4090698;28;20053;-58
2024/02/10 12:49:56;;;;;;;4.30;3.53;;;21.10;66.40;;;;;;4090969;28;20065;-43
2024/02/10 12:52:39;;;;;;;4.53;3.60;;;21.10;66.30;;;;;;4082729;28;20393;-44
2024/02/10 12:55:19;;;;;;;4.60;3.22;;;21.10;66.10;;;;;;4085325;28;20057;-46
2024/02/10 12:58:02;;;;;;;4.20;3.90;;;21.20;66.30;;;;;;4080639;28;20090;-58
2024/02/10 13:00:42;;;;;;;3.28;3.08;;;21.20;66.40;;;;;;4087179;28;20066;-61
2024/02/10 13:03:23;;;;;;;6.10;3.28;;;21.30;66.30;;;;;;4073061;29;20156;-61
2024/02/10 13:06:07;;;;;;;4.00;3.28;;;21.40;66.10;;;;;;4087602;28;20062;-54
2024/02/10 13:08:49;;;;;;;4.68;3.58;;;21.40;66.10;;;;;;4082141;28;20618;-52
2024/02/10 13:11:30;;;;;;;4.88;3.78;;;21.50;66.30;;;;;;4089031;29;20178;-42
2024/02/10 13:14:13;;;;;;;6.45;3.20;;;21.50;66.00;;;;;;4077663;28;20377;-51
2024/02/10 13:16:55;;;;;;;5.43;3.22;;;21.50;65.90;;;;;;4088841;28;20448;-52
2024/02/10 13:19:39;;;;;;;3.80;3.15;;;21.60;65.70;;;;;;4089256;28;20142;-46
2024/02/10 13:22:21;;;;;;;3.33;2.88;;;21.50;65.70;;;;;;4087862;28;20054;-47
2024/02/10 13:25:02;;;;;;;;;;;21.50;65.70;;;;;;4088572;28;20058;-41
2024/02/10 13:27:44;;;;;;;4.30;3.08;;;21.40;66.20;;;;;;4088389;28;19980;-39
2024/02/10 13:30:27;;;;;;;3.17;2.88;;;21.30;66.70;;;;;;4072258;29;20106;-41
2024/02/10 13:33:08;;;;;;;3.88;3.10;;;21.30;67.10;;;;;;4078881;28;20066;-42
2024/02/10 13:35:54;;;;;;;3.70;3.28;;;21.20;67.00;;;;;;4087443;28;20163;-41
2024/02/10 14:05:09;;;;;;;3.40;2.67;;;21.10;67.40;;;;;;4087656;29;20046;-44
2024/02/10 14:11:00;;;;;;;3.20;2.92;;;21.00;67.40;;;;;;4079642;28;20066;-45
2024/02/10 14:13:46;;;;;;;4.95;2.95;;;21.00;67.50;;;;;;4087881;28;20361;-43
2024/02/10 14:16:29;;;;;;;3.08;2.78;;;21.00;67.40;;;;;;4088541;29;20488;-45
2024/02/10 14:19:13;;;;;;;3.20;3.00;;;20.90;67.70;;;;;;4088936;28;20062;-42
2024/02/10 14:21:56;;;;;;;4.10;3.35;;;20.80;68.10;;;;;;4088332;28;20463;-42
2024/02/10 14:24:37;;;;;;;5.00;2.78;;;20.80;68.70;;;;;;4089156;28;20067;-47
2024/02/10 14:27:19;;;;;;;7.03;3.67;;;20.70;68.80;;;;;;4088467;28;20134;-47
2024/02/10 14:30:04;;;;;;;5.85;3.28;;;20.70;69.40;;;;;;4081391;29;20158;-47
2024/02/10 14:32:51;;;;;;;5.35;3.38;;;20.70;70.10;;;;;;4089464;28;20050;-43
2024/02/10 14:38:36;;;;;;;3.75;3.08;;;20.50;71.00;;;;;;4089850;28;20054;-45